sensor_id;sensor_type;location;lat;lon;timestamp;pressure;altitude;pressure_sealevel;temperature;humidity
29909;BME280;36247;51.952;6.146;2023-05-29T00:00:11;102269.41;;;11.28;100.00
29909;BME280;36247;51.952;6.146;2023-05-29T00:02:39;102274.75;;;11.03;100.00
29909;BME280;36247;51.952;6.146;2023-05-29T00:05:13;102276.56;;;11.04;100.00
29909;BME280;36247;51.952;6.146;2023-05-29T00:07:40;102281.84;;;10.78;100.00
29909;BME280;36247;51.952;6.146;2023-05-29T00:10:09;102289.44;;;10.93;100.00
29909;BME280;36247;51.952;6.146;2023-05-29T00:12:36;102282.69;;;10.77;100.00
29909;BME280;36247;51.952;6.146;2023-05-29T00:15:04;102278.38;;;10.81;100.00
29909;BME280;36247;51.952;6.146;2023-05-29T00:17:30;102285.22;;;10.74;100.00
29909;BME280;36247;51.952;6.146;2023-05-29T00:19:59;102287.16;;;10.78;100.00
29909;BME280;36247;51.952;6.146;2023-05-29T00:22:26;102298.25;;;10.68;100.00
29909;BME280;36247;51.952;6.146;2023-05-29T00:24:52;102288.38;;;10.64;100.00
29909;BME280;36247;51.952;6.146;2023-05-29T00:27:18;102288.22;;;10.59;100.00
29909;BME280;36247;51.952;6.146;2023-05-29T00:29:45;102291.47;;;10.52;100.00
29909;BME280;36247;51.952;6.146;2023-05-29T00:32:11;102291.53;;;10.77;100.00
29909;BME280;36247;51.952;6.146;2023-05-29T00:34:38;102290.31;;;10.68;100.00
29909;BME280;36247;51.952;6.146;2023-05-29T00:37:04;102285.94;;;10.70;100.00
29909;BME280;36247;51.952;6.146;2023-05-29T00:39:29;102286.00;;;10.71;100.00
29909;BME280;36247;51.952;6.146;2023-05-29T00:41:56;102295.31;;;10.60;100.00
29909;BME280;36247;51.952;6.146;2023-05-29T00:44:21;102291.25;;;10.46;100.00
29909;BME280;36247;51.952;6.146;2023-05-29T00:46:49;102288.09;;;10.56;100.00
29909;BME280;36247;51.952;6.146;2023-05-29T00:49:16;102289.03;;;10.34;100.00
29909;BME280;36247;51.952;6.146;2023-05-29T00:51:43;102290.03;;;10.15;100.00
29909;BME280;36247;51.952;6.146;2023-05-29T00:54:12;102296.38;;;10.18;100.00
29909;BME280;36247;51.952;6.146;2023-05-29T00:56:40;102295.56;;;10.21;100.00
29909;BME280;36247;51.952;6.146;2023-05-29T00:59:11;102294.72;;;10.45;100.00
29909;BME280;36247;51.952;6.146;2023-05-29T01:01:38;102303.88;;;10.30;100.00
29909;BME280;36247;51.952;6.146;2023-05-29T01:04:11;102304.84;;;10.32;100.00
29909;BME280;36247;51.952;6.146;2023-05-29T01:06:40;102299.53;;;10.32;100.00
29909;BME280;36247;51.952;6.146;2023-05-29T01:09:09;102305.25;;;10.20;100.00
29909;BME280;36247;51.952;6.146;2023-05-29T01:14:40;102318.97;;;10.10;100.00
29909;BME280;36247;51.952;6.146;2023-05-29T01:25:06;102318.22;;;10.13;100.00
29909;BME280;36247;51.952;6.146;2023-05-29T01:27:39;102319.09;;;10.13;100.00
29909;BME280;36247;51.952;6.146;2023-05-29T01:30:10;102317.19;;;10.09;100.00
29909;BME280;36247;51.952;6.146;2023-05-29T01:32:38;102319.84;;;10.09;100.00
29909;BME280;36247;51.952;6.146;2023-05-29T01:35:05;102327.22;;;10.18;100.00
29909;BME280;36247;51.952;6.146;2023-05-29T01:37:30;102328.56;;;10.06;100.00
29909;BME280;36247;51.952;6.146;2023-05-29T01:39:56;102330.56;;;10.12;100.00
29909;BME280;36247;51.952;6.146;2023-05-29T01:42:22;102336.44;;;9.82;100.00
29909;BME280;36247;51.952;6.146;2023-05-29T01:44:49;102335.91;;;10.14;100.00
29909;BME280;36247;51.952;6.146;2023-05-29T01:47:15;102333.31;;;10.15;100.00
29909;BME280;36247;51.952;6.146;2023-05-29T01:49:41;102337.69;;;9.92;100.00
29909;BME280;36247;51.952;6.146;2023-05-29T01:52:09;102334.31;;;9.96;100.00
29909;BME280;36247;51.952;6.146;2023-05-29T01:54:36;102330.50;;;10.11;100.00
29909;BME280;36247;51.952;6.146;2023-05-29T01:57:04;102337.47;;;10.09;100.00
29909;BME280;36247;51.952;6.146;2023-05-29T01:59:34;102329.63;;;10.12;100.00
29909;BME280;36247;51.952;6.146;2023-05-29T02:02:10;102334.66;;;9.83;100.00
29909;BME280;36247;51.952;6.146;2023-05-29T02:04:38;102320.44;;;10.02;100.00
29909;BME280;36247;51.952;6.146;2023-05-29T02:07:04;102328.91;;;9.93;100.00
29909;BME280;36247;51.952;6.146;2023-05-29T02:09:30;102324.72;;;9.77;100.00
29909;BME280;36247;51.952;6.146;2023-05-29T02:11:56;102325.81;;;9.61;100.00
29909;BME280;36247;51.952;6.146;2023-05-29T02:14:21;102327.38;;;9.77;100.00
29909;BME280;36247;51.952;6.146;2023-05-29T02:16:51;102320.94;;;9.70;100.00
29909;BME280;36247;51.952;6.146;2023-05-29T02:19:18;102329.75;;;9.92;100.00
29909;BME280;36247;51.952;6.146;2023-05-29T02:21:44;102331.97;;;9.60;100.00
29909;BME280;36247;51.952;6.146;2023-05-29T02:24:10;102328.88;;;9.70;100.00
29909;BME280;36247;51.952;6.146;2023-05-29T02:26:35;102338.75;;;9.53;100.00
29909;BME280;36247;51.952;6.146;2023-05-29T02:29:04;102336.03;;;9.52;100.00
29909;BME280;36247;51.952;6.146;2023-05-29T02:31:38;102339.00;;;9.60;100.00
29909;BME280;36247;51.952;6.146;2023-05-29T02:34:04;102340.88;;;9.41;100.00
29909;BME280;36247;51.952;6.146;2023-05-29T02:36:29;102336.59;;;9.45;100.00
29909;BME280;36247;51.952;6.146;2023-05-29T02:38:57;102330.88;;;9.55;100.00
29909;BME280;36247;51.952;6.146;2023-05-29T02:41:23;102330.88;;;9.55;100.00
29909;BME280;36247;51.952;6.146;2023-05-29T02:43:49;102324.13;;;9.41;100.00
29909;BME280;36247;51.952;6.146;2023-05-29T02:46:15;102325.91;;;9.42;100.00
29909;BME280;36247;51.952;6.146;2023-05-29T02:48:41;102326.69;;;9.39;100.00
29909;BME280;36247;51.952;6.146;2023-05-29T02:51:08;102333.25;;;9.28;100.00
29909;BME280;36247;51.952;6.146;2023-05-29T02:53:37;102331.19;;;9.42;100.00
29909;BME280;36247;51.952;6.146;2023-05-29T02:56:04;102330.78;;;9.11;100.00
29909;BME280;36247;51.952;6.146;2023-05-29T02:58:30;102324.00;;;9.18;100.00
29909;BME280;36247;51.952;6.146;2023-05-29T03:00:56;102332.38;;;9.27;100.00
29909;BME280;36247;51.952;6.146;2023-05-29T03:03:21;102330.22;;;9.40;100.00
29909;BME280;36247;51.952;6.146;2023-05-29T03:05:47;102331.81;;;9.15;100.00
29909;BME280;36247;51.952;6.146;2023-05-29T03:08:13;102339.81;;;9.16;100.00
29909;BME280;36247;51.952;6.146;2023-05-29T03:10:41;102336.47;;;9.21;100.00
29909;BME280;36247;51.952;6.146;2023-05-29T03:13:09;102348.66;;;9.17;100.00
29909;BME280;36247;51.952;6.146;2023-05-29T03:15:38;102351.25;;;9.15;100.00
29909;BME280;36247;51.952;6.146;2023-05-29T03:18:04;102343.19;;;9.12;100.00
29909;BME280;36247;51.952;6.146;2023-05-29T03:20:31;102346.16;;;9.20;100.00
29909;BME280;36247;51.952;6.146;2023-05-29T03:22:58;102351.81;;;9.08;100.00
29909;BME280;36247;51.952;6.146;2023-05-29T03:25:24;102346.38;;;9.05;100.00
29909;BME280;36247;51.952;6.146;2023-05-29T03:27:50;102350.19;;;8.92;100.00
29909;BME280;36247;51.952;6.146;2023-05-29T03:30:18;102345.47;;;8.85;100.00
29909;BME280;36247;51.952;6.146;2023-05-29T03:32:46;102346.31;;;8.84;100.00
29909;BME280;36247;51.952;6.146;2023-05-29T03:35:12;102340.63;;;8.94;100.00
29909;BME280;36247;51.952;6.146;2023-05-29T03:37:43;102350.53;;;9.00;100.00
29909;BME280;36247;51.952;6.146;2023-05-29T03:40:09;102345.06;;;8.95;100.00
29909;BME280;36247;51.952;6.146;2023-05-29T03:42:37;102345.13;;;8.77;100.00
29909;BME280;36247;51.952;6.146;2023-05-29T03:45:03;102336.84;;;8.89;100.00
29909;BME280;36247;51.952;6.146;2023-05-29T03:47:34;102343.81;;;8.87;100.00
29909;BME280;36247;51.952;6.146;2023-05-29T03:50:00;102346.47;;;8.87;100.00
29909;BME280;36247;51.952;6.146;2023-05-29T03:52:26;102341.44;;;8.93;100.00
29909;BME280;36247;51.952;6.146;2023-05-29T03:54:57;102357.31;;;8.93;100.00
29909;BME280;36247;51.952;6.146;2023-05-29T03:57:22;102349.09;;;9.07;100.00
29909;BME280;36247;51.952;6.146;2023-05-29T03:59:48;102350.28;;;8.94;100.00
29909;BME280;36247;51.952;6.146;2023-05-29T04:02:15;102348.63;;;8.76;100.00
29909;BME280;36247;51.952;6.146;2023-05-29T04:04:41;102351.06;;;8.91;100.00
29909;BME280;36247;51.952;6.146;2023-05-29T04:07:09;102357.44;;;8.96;100.00
29909;BME280;36247;51.952;6.146;2023-05-29T04:09:35;102358.19;;;8.94;100.00
29909;BME280;36247;51.952;6.146;2023-05-29T04:12:02;102360.34;;;9.03;100.00
29909;BME280;36247;51.952;6.146;2023-05-29T04:14:28;102369.63;;;8.93;100.00
29909;BME280;36247;51.952;6.146;2023-05-29T04:16:55;102369.41;;;9.08;100.00
29909;BME280;36247;51.952;6.146;2023-05-29T04:19:20;102366.63;;;9.05;100.00
29909;BME280;36247;51.952;6.146;2023-05-29T04:21:48;102371.34;;;9.12;100.00
29909;BME280;36247;51.952;6.146;2023-05-29T04:24:15;102380.28;;;8.94;100.00
29909;BME280;36247;51.952;6.146;2023-05-29T04:26:40;102376.28;;;9.04;100.00
29909;BME280;36247;51.952;6.146;2023-05-29T04:29:11;102367.16;;;9.17;100.00
29909;BME280;36247;51.952;6.146;2023-05-29T04:31:39;102367.66;;;9.08;100.00
29909;BME280;36247;51.952;6.146;2023-05-29T04:34:04;102366.78;;;9.08;100.00
29909;BME280;36247;51.952;6.146;2023-05-29T04:36:34;102362.50;;;9.11;100.00
29909;BME280;36247;51.952;6.146;2023-05-29T04:39:09;102362.00;;;9.20;100.00
29909;BME280;36247;51.952;6.146;2023-05-29T04:41:37;102352.69;;;9.09;100.00
29909;BME280;36247;51.952;6.146;2023-05-29T04:44:09;102361.31;;;9.24;100.00
29909;BME280;36247;51.952;6.146;2023-05-29T04:46:44;102364.28;;;9.32;100.00
29909;BME280;36247;51.952;6.146;2023-05-29T04:49:11;102368.66;;;9.31;100.00
29909;BME280;36247;51.952;6.146;2023-05-29T04:51:39;102376.59;;;9.51;100.00
29909;BME280;36247;51.952;6.146;2023-05-29T04:54:10;102384.22;;;9.45;100.00
29909;BME280;36247;51.952;6.146;2023-05-29T04:56:37;102389.81;;;9.51;100.00
29909;BME280;36247;51.952;6.146;2023-05-29T04:59:09;102400.53;;;9.54;100.00
29909;BME280;36247;51.952;6.146;2023-05-29T05:01:38;102401.97;;;9.47;100.00
29909;BME280;36247;51.952;6.146;2023-05-29T05:04:04;102401.78;;;9.43;100.00
29909;BME280;36247;51.952;6.146;2023-05-29T05:06:29;102404.50;;;9.44;100.00
29909;BME280;36247;51.952;6.146;2023-05-29T05:08:55;102404.63;;;9.68;100.00
29909;BME280;36247;51.952;6.146;2023-05-29T05:11:22;102399.41;;;9.49;100.00
29909;BME280;36247;51.952;6.146;2023-05-29T05:13:49;102400.78;;;9.60;100.00
29909;BME280;36247;51.952;6.146;2023-05-29T05:16:16;102402.19;;;9.52;100.00
29909;BME280;36247;51.952;6.146;2023-05-29T05:18:44;102401.66;;;9.61;100.00
29909;BME280;36247;51.952;6.146;2023-05-29T05:21:09;102402.97;;;9.70;100.00
29909;BME280;36247;51.952;6.146;2023-05-29T05:23:38;102404.31;;;9.82;100.00
29909;BME280;36247;51.952;6.146;2023-05-29T05:26:03;102395.81;;;9.89;100.00
29909;BME280;36247;51.952;6.146;2023-05-29T05:28:34;102398.06;;;10.01;100.00
29909;BME280;36247;51.952;6.146;2023-05-29T05:31:01;102403.34;;;10.01;100.00
29909;BME280;36247;51.952;6.146;2023-05-29T05:33:30;102398.66;;;10.16;100.00
29909;BME280;36247;51.952;6.146;2023-05-29T05:35:56;102401.19;;;10.34;100.00
29909;BME280;36247;51.952;6.146;2023-05-29T05:38:22;102399.97;;;10.26;100.00
29909;BME280;36247;51.952;6.146;2023-05-29T05:40:48;102400.84;;;10.27;100.00
29909;BME280;36247;51.952;6.146;2023-05-29T05:43:24;102393.50;;;10.40;100.00
29909;BME280;36247;51.952;6.146;2023-05-29T05:46:03;102397.44;;;10.29;100.00
29909;BME280;36247;51.952;6.146;2023-05-29T05:48:30;102404.69;;;10.56;100.00
29909;BME280;36247;51.952;6.146;2023-05-29T05:50:56;102400.75;;;10.69;100.00
29909;BME280;36247;51.952;6.146;2023-05-29T05:53:22;102400.16;;;10.76;100.00
29909;BME280;36247;51.952;6.146;2023-05-29T05:55:48;102410.69;;;10.74;100.00
29909;BME280;36247;51.952;6.146;2023-05-29T05:58:15;102405.94;;;10.88;100.00
29909;BME280;36247;51.952;6.146;2023-05-29T06:00:42;102399.88;;;10.92;100.00
29909;BME280;36247;51.952;6.146;2023-05-29T06:03:09;102405.94;;;10.88;100.00
29909;BME280;36247;51.952;6.146;2023-05-29T06:05:50;102402.25;;;11.09;100.00
29909;BME280;36247;51.952;6.146;2023-05-29T06:08:18;102406.28;;;11.22;100.00
29909;BME280;36247;51.952;6.146;2023-05-29T06:10:43;102402.88;;;11.26;100.00
29909;BME280;36247;51.952;6.146;2023-05-29T06:13:09;102408.16;;;11.24;100.00
29909;BME280;36247;51.952;6.146;2023-05-29T06:15:44;102397.59;;;11.26;100.00
29909;BME280;36247;51.952;6.146;2023-05-29T06:18:10;102400.97;;;11.47;100.00
29909;BME280;36247;51.952;6.146;2023-05-29T06:20:38;102400.44;;;11.32;100.00
29909;BME280;36247;51.952;6.146;2023-05-29T06:23:04;102405.25;;;11.42;100.00
29909;BME280;36247;51.952;6.146;2023-05-29T06:25:34;102410.75;;;11.49;100.00
29909;BME280;36247;51.952;6.146;2023-05-29T06:28:04;102408.78;;;11.69;100.00
29909;BME280;36247;51.952;6.146;2023-05-29T06:30:35;102412.69;;;11.78;100.00
29909;BME280;36247;51.952;6.146;2023-05-29T06:33:04;102406.72;;;11.86;100.00
29909;BME280;36247;51.952;6.146;2023-05-29T06:35:30;102409.06;;;12.02;100.00
29909;BME280;36247;51.952;6.146;2023-05-29T06:37:56;102404.59;;;12.01;100.00
29909;BME280;36247;51.952;6.146;2023-05-29T06:40:22;102406.75;;;12.13;100.00
29909;BME280;36247;51.952;6.146;2023-05-29T06:42:48;102407.81;;;11.92;100.00
29909;BME280;36247;51.952;6.146;2023-05-29T06:45:15;102404.47;;;11.96;100.00
29909;BME280;36247;51.952;6.146;2023-05-29T06:47:42;102413.28;;;12.23;100.00
29909;BME280;36247;51.952;6.146;2023-05-29T06:50:10;102411.91;;;12.35;100.00
29909;BME280;36247;51.952;6.146;2023-05-29T06:52:39;102405.97;;;12.44;100.00
29909;BME280;36247;51.952;6.146;2023-05-29T06:55:32;102407.78;;;12.45;100.00
29909;BME280;36247;51.952;6.146;2023-05-29T06:57:58;102411.34;;;12.46;100.00
29909;BME280;36247;51.952;6.146;2023-05-29T07:00:25;102414.78;;;12.70;100.00
29909;BME280;36247;51.952;6.146;2023-05-29T07:03:13;102420.81;;;12.65;100.00
29909;BME280;36247;51.952;6.146;2023-05-29T07:05:42;102418.91;;;12.61;100.00
29909;BME280;36247;51.952;6.146;2023-05-29T07:08:11;102426.31;;;12.71;100.00
29909;BME280;36247;51.952;6.146;2023-05-29T07:10:42;102412.59;;;12.87;100.00
29909;BME280;36247;51.952;6.146;2023-05-29T07:13:26;102420.44;;;13.13;100.00
29909;BME280;36247;51.952;6.146;2023-05-29T07:15:53;102415.63;;;13.00;100.00
29909;BME280;36247;51.952;6.146;2023-05-29T07:18:25;102426.16;;;13.27;100.00
29909;BME280;36247;51.952;6.146;2023-05-29T07:20:51;102426.97;;;13.25;100.00
29909;BME280;36247;51.952;6.146;2023-05-29T07:23:20;102426.47;;;13.36;100.00
29909;BME280;36247;51.952;6.146;2023-05-29T07:25:45;102432.59;;;13.34;100.00
29909;BME280;36247;51.952;6.146;2023-05-29T07:28:13;102433.81;;;13.45;100.00
29909;BME280;36247;51.952;6.146;2023-05-29T07:30:41;102428.88;;;13.29;100.00
29909;BME280;36247;51.952;6.146;2023-05-29T07:33:23;102435.34;;;13.37;100.00
29909;BME280;36247;51.952;6.146;2023-05-29T07:35:52;102434.84;;;13.52;100.00
29909;BME280;36247;51.952;6.146;2023-05-29T07:38:18;102438.75;;;13.65;100.00
29909;BME280;36247;51.952;6.146;2023-05-29T07:40:46;102435.31;;;14.04;100.00
29909;BME280;36247;51.952;6.146;2023-05-29T07:43:23;102434.81;;;14.19;100.00
29909;BME280;36247;51.952;6.146;2023-05-29T07:45:55;102433.03;;;14.57;100.00
29909;BME280;36247;51.952;6.146;2023-05-29T07:48:22;102432.47;;;13.96;100.00
29909;BME280;36247;51.952;6.146;2023-05-29T07:50:49;102427.06;;;14.29;100.00
29909;BME280;36247;51.952;6.146;2023-05-29T07:53:16;102434.34;;;14.37;100.00
29909;BME280;36247;51.952;6.146;2023-05-29T07:55:41;102438.31;;;14.54;100.00
29909;BME280;36247;51.952;6.146;2023-05-29T07:58:13;102430.66;;;14.68;100.00
29909;BME280;36247;51.952;6.146;2023-05-29T08:00:43;102444.81;;;14.66;100.00
29909;BME280;36247;51.952;6.146;2023-05-29T08:03:11;102435.41;;;14.83;100.00
29909;BME280;36247;51.952;6.146;2023-05-29T08:05:44;102428.41;;;14.88;100.00
29909;BME280;36247;51.952;6.146;2023-05-29T08:08:12;102438.69;;;14.70;100.00
29909;BME280;36247;51.952;6.146;2023-05-29T08:10:40;102434.69;;;14.90;100.00
29909;BME280;36247;51.952;6.146;2023-05-29T08:13:10;102442.63;;;14.49;100.00
29909;BME280;36247;51.952;6.146;2023-05-29T08:15:39;102442.56;;;14.84;100.00
29909;BME280;36247;51.952;6.146;2023-05-29T08:18:05;102432.28;;;15.48;100.00
29909;BME280;36247;51.952;6.146;2023-05-29T08:20:30;102438.94;;;15.25;100.00
29909;BME280;36247;51.952;6.146;2023-05-29T08:22:56;102443.81;;;15.46;100.00
29909;BME280;36247;51.952;6.146;2023-05-29T08:25:22;102449.91;;;15.39;100.00
29909;BME280;36247;51.952;6.146;2023-05-29T08:27:49;102442.06;;;15.48;100.00
29909;BME280;36247;51.952;6.146;2023-05-29T08:30:15;102442.59;;;15.30;100.00
29909;BME280;36247;51.952;6.146;2023-05-29T08:32:42;102449.09;;;15.00;100.00
29909;BME280;36247;51.952;6.146;2023-05-29T08:35:10;102447.34;;;15.45;100.00
29909;BME280;36247;51.952;6.146;2023-05-29T08:37:40;102438.63;;;15.55;100.00
29909;BME280;36247;51.952;6.146;2023-05-29T08:40:11;102438.53;;;15.49;100.00
29909;BME280;36247;51.952;6.146;2023-05-29T08:42:46;102442.22;;;16.04;100.00
29909;BME280;36247;51.952;6.146;2023-05-29T08:45:15;102447.88;;;15.73;100.00
29909;BME280;36247;51.952;6.146;2023-05-29T08:47:50;102444.25;;;16.19;100.00
29909;BME280;36247;51.952;6.146;2023-05-29T08:50:21;102441.28;;;16.01;100.00
29909;BME280;36247;51.952;6.146;2023-05-29T08:52:49;102443.06;;;16.00;100.00
29909;BME280;36247;51.952;6.146;2023-05-29T08:55:16;102443.53;;;16.31;100.00
29909;BME280;36247;51.952;6.146;2023-05-29T08:57:42;102450.50;;;16.20;100.00
29909;BME280;36247;51.952;6.146;2023-05-29T09:00:11;102449.28;;;16.56;100.00
29909;BME280;36247;51.952;6.146;2023-05-29T09:02:45;102446.72;;;16.64;100.00
29909;BME280;36247;51.952;6.146;2023-05-29T09:05:15;102446.66;;;16.59;100.00
29909;BME280;36247;51.952;6.146;2023-05-29T09:07:41;102453.00;;;16.69;100.00
29909;BME280;36247;51.952;6.146;2023-05-29T09:10:09;102445.72;;;16.57;100.00
29909;BME280;36247;51.952;6.146;2023-05-29T09:12:35;102447.97;;;16.89;100.00
29909;BME280;36247;51.952;6.146;2023-05-29T09:15:01;102445.06;;;17.42;100.00
29909;BME280;36247;51.952;6.146;2023-05-29T09:17:31;102444.97;;;17.33;100.00
29909;BME280;36247;51.952;6.146;2023-05-29T09:19:58;102446.84;;;17.43;100.00
29909;BME280;36247;51.952;6.146;2023-05-29T09:22:24;102446.91;;;17.48;100.00
29909;BME280;36247;51.952;6.146;2023-05-29T09:24:49;102443.78;;;17.08;100.00
29909;BME280;36247;51.952;6.146;2023-05-29T09:27:18;102444.75;;;17.18;100.00
29909;BME280;36247;51.952;6.146;2023-05-29T09:29:45;102446.31;;;17.00;100.00
29909;BME280;36247;51.952;6.146;2023-05-29T09:32:18;102439.78;;;16.78;100.00
29909;BME280;36247;51.952;6.146;2023-05-29T09:34:44;102444.03;;;17.33;100.00
29909;BME280;36247;51.952;6.146;2023-05-29T09:37:11;102442.81;;;17.04;100.00
29909;BME280;36247;51.952;6.146;2023-05-29T09:39:50;102444.28;;;17.53;100.00
29909;BME280;36247;51.952;6.146;2023-05-29T09:42:19;102445.59;;;17.92;100.00
29909;BME280;36247;51.952;6.146;2023-05-29T09:44:49;102447.66;;;17.33;100.00
29909;BME280;36247;51.952;6.146;2023-05-29T09:47:17;102442.47;;;17.52;100.00
29909;BME280;36247;51.952;6.146;2023-05-29T09:49:44;102438.19;;;17.69;100.00
29909;BME280;36247;51.952;6.146;2023-05-29T09:52:20;102444.44;;;17.68;100.00
29909;BME280;36247;51.952;6.146;2023-05-29T09:54:48;102442.38;;;18.39;96.93
29909;BME280;36247;51.952;6.146;2023-05-29T09:57:16;102437.72;;;18.17;100.00
29909;BME280;36247;51.952;6.146;2023-05-29T09:59:43;102436.22;;;18.53;95.68
29909;BME280;36247;51.952;6.146;2023-05-29T10:02:11;102442.66;;;17.72;97.41
29909;BME280;36247;51.952;6.146;2023-05-29T10:04:39;102436.97;;;18.35;96.71
29909;BME280;36247;51.952;6.146;2023-05-29T10:07:12;102427.16;;;18.33;95.90
29909;BME280;36247;51.952;6.146;2023-05-29T10:09:44;102429.91;;;18.49;97.32
29909;BME280;36247;51.952;6.146;2023-05-29T10:12:17;102438.03;;;18.63;87.12
29909;BME280;36247;51.952;6.146;2023-05-29T10:14:49;102429.44;;;19.32;85.92
29909;BME280;36247;51.952;6.146;2023-05-29T10:17:23;102430.88;;;18.57;92.39
29909;BME280;36247;51.952;6.146;2023-05-29T10:19:51;102430.06;;;18.74;94.45
29909;BME280;36247;51.952;6.146;2023-05-29T10:22:24;102422.22;;;19.17;84.67
29909;BME280;36247;51.952;6.146;2023-05-29T10:24:51;102431.53;;;18.24;90.58
29909;BME280;36247;51.952;6.146;2023-05-29T10:27:18;102432.66;;;18.60;97.18
29909;BME280;36247;51.952;6.146;2023-05-29T10:30:04;102434.88;;;17.95;99.22
29909;BME280;36247;51.952;6.146;2023-05-29T10:33:00;102423.59;;;18.39;99.37
29909;BME280;36247;51.952;6.146;2023-05-29T10:35:46;102426.81;;;19.66;93.17
29909;BME280;36247;51.952;6.146;2023-05-29T10:38:16;102424.00;;;19.12;87.54
29909;BME280;36247;51.952;6.146;2023-05-29T10:40:44;102425.84;;;19.27;89.92
29909;BME280;36247;51.952;6.146;2023-05-29T10:43:32;102418.81;;;19.95;86.56
29909;BME280;36247;51.952;6.146;2023-05-29T10:45:59;102424.06;;;19.30;83.13
29909;BME280;36247;51.952;6.146;2023-05-29T10:50:57;102417.84;;;19.64;76.72
29909;BME280;36247;51.952;6.146;2023-05-29T10:53:24;102415.19;;;19.87;82.95
29909;BME280;36247;51.952;6.146;2023-05-29T10:55:52;102417.84;;;19.70;78.21
29909;BME280;36247;51.952;6.146;2023-05-29T10:58:21;102403.50;;;20.48;72.61
29909;BME280;36247;51.952;6.146;2023-05-29T11:00:49;102416.03;;;19.49;80.26
29909;BME280;36247;51.952;6.146;2023-05-29T11:03:17;102415.03;;;19.08;81.28
29909;BME280;36247;51.952;6.146;2023-05-29T11:11:13;102411.63;;;20.11;79.25
29909;BME280;36247;51.952;6.146;2023-05-29T11:13:40;102399.03;;;20.36;78.11
29909;BME280;36247;51.952;6.146;2023-05-29T11:18:45;102407.59;;;21.37;56.71
29909;BME280;36247;51.952;6.146;2023-05-29T11:24:01;102407.09;;;20.29;62.10
29909;BME280;36247;51.952;6.146;2023-05-29T11:26:38;102402.66;;;19.94;69.98
29909;BME280;36247;51.952;6.146;2023-05-29T11:29:05;102401.72;;;20.19;66.70
29909;BME280;36247;51.952;6.146;2023-05-29T11:31:39;102411.56;;;20.54;67.16
29909;BME280;36247;51.952;6.146;2023-05-29T11:34:10;102405.31;;;20.34;64.92
29909;BME280;36247;51.952;6.146;2023-05-29T11:36:40;102405.09;;;21.02;59.71
29909;BME280;36247;51.952;6.146;2023-05-29T11:39:10;102395.88;;;21.51;58.30
29909;BME280;36247;51.952;6.146;2023-05-29T11:41:37;102404.44;;;20.15;58.83
29909;BME280;36247;51.952;6.146;2023-05-29T11:44:04;102405.34;;;19.86;64.40
29909;BME280;36247;51.952;6.146;2023-05-29T11:46:34;102406.22;;;20.19;61.84
29909;BME280;36247;51.952;6.146;2023-05-29T11:49:00;102399.84;;;20.57;62.25
29909;BME280;36247;51.952;6.146;2023-05-29T11:51:29;102396.19;;;20.90;59.95
29909;BME280;36247;51.952;6.146;2023-05-29T11:53:55;102402.63;;;20.17;57.98
29909;BME280;36247;51.952;6.146;2023-05-29T11:56:27;102396.28;;;20.53;58.54
29909;BME280;36247;51.952;6.146;2023-05-29T11:58:54;102394.53;;;20.43;63.31
29909;BME280;36247;51.952;6.146;2023-05-29T12:01:22;102390.06;;;20.22;58.79
29909;BME280;36247;51.952;6.146;2023-05-29T12:03:51;102385.50;;;20.66;53.74
29909;BME280;36247;51.952;6.146;2023-05-29T12:06:31;102387.25;;;20.79;55.99
29909;BME280;36247;51.952;6.146;2023-05-29T12:08:57;102387.41;;;20.20;56.90
29909;BME280;36247;51.952;6.146;2023-05-29T12:11:23;102381.09;;;20.37;57.42
29909;BME280;36247;51.952;6.146;2023-05-29T12:13:58;102393.59;;;20.55;51.81
29909;BME280;36247;51.952;6.146;2023-05-29T12:16:26;102385.47;;;20.70;50.23
29909;BME280;36247;51.952;6.146;2023-05-29T12:18:53;102396.34;;;20.38;51.45
29909;BME280;36247;51.952;6.146;2023-05-29T12:21:21;102391.53;;;21.23;50.81
29909;BME280;36247;51.952;6.146;2023-05-29T12:23:51;102391.78;;;20.72;52.61
29909;BME280;36247;51.952;6.146;2023-05-29T12:26:21;102388.16;;;20.84;54.73
29909;BME280;36247;51.952;6.146;2023-05-29T12:28:50;102389.88;;;21.01;54.20
29909;BME280;36247;51.952;6.146;2023-05-29T12:31:27;102388.13;;;20.87;53.22
29909;BME280;36247;51.952;6.146;2023-05-29T12:33:53;102393.31;;;21.23;52.50
29909;BME280;36247;51.952;6.146;2023-05-29T12:36:25;102387.16;;;21.02;49.61
29909;BME280;36247;51.952;6.146;2023-05-29T12:38:52;102386.13;;;21.23;52.05
29909;BME280;36247;51.952;6.146;2023-05-29T12:41:25;102388.91;;;21.09;54.71
29909;BME280;36247;51.952;6.146;2023-05-29T12:43:53;102391.34;;;21.49;47.19
29909;BME280;36247;51.952;6.146;2023-05-29T12:46:21;102386.28;;;22.21;46.45
29909;BME280;36247;51.952;6.146;2023-05-29T12:48:46;102389.78;;;22.32;49.69
29909;BME280;36247;51.952;6.146;2023-05-29T12:51:12;102386.19;;;22.27;47.37
29909;BME280;36247;51.952;6.146;2023-05-29T12:53:38;102384.59;;;22.09;48.78
29909;BME280;36247;51.952;6.146;2023-05-29T12:56:03;102394.69;;;21.89;48.18
29909;BME280;36247;51.952;6.146;2023-05-29T12:58:29;102388.44;;;21.82;48.75
29909;BME280;36247;51.952;6.146;2023-05-29T13:00:55;102384.22;;;21.45;47.60
29909;BME280;36247;51.952;6.146;2023-05-29T13:03:21;102385.53;;;22.07;46.30
29909;BME280;36247;51.952;6.146;2023-05-29T13:05:51;102392.34;;;22.45;47.73
29909;BME280;36247;51.952;6.146;2023-05-29T13:08:19;102389.34;;;21.79;45.20
29909;BME280;36247;51.952;6.146;2023-05-29T13:10:45;102387.22;;;22.18;45.99
29909;BME280;36247;51.952;6.146;2023-05-29T13:13:11;102373.81;;;22.87;44.76
29909;BME280;36247;51.952;6.146;2023-05-29T13:15:42;102380.75;;;22.36;47.19